<?xml version="1.0" encoding="UTF-8" standalone="no" ?>
<gpx xmlns="http://www.topografix.com/GPX/1/1" xmlns:xsi="http://www.w3.org/2001/XMLSchema-instance" xsi:schemaLocation="http://www.topografix.com/GPX/1/1 http://www.topografix.com/GPX/1/1/gpx.xsd" version="1.1" creator="VisuGPX - https://www.visugpx.com">
  <metadata>
    <name>Mont Thou Express </name>
    <desc><![CDATA[itinéraire Fauteuil Tout Terrain/cimgo Mont Thou express ]]></desc>
  </metadata>
  <trk>
    <name><![CDATA[2021-04-27 13:54:09]]></name>
    <extensions>
      <line xmlns="http://www.topografix.com/GPX/gpx_style/0/2">
        <color>0000FF</color>
        <width>4</width>
      </line>
    </extensions>
    <trkseg>
      <trkpt lat="45.84229" lon="4.79814">
        <ele>585.41</ele>
        <time>2021-04-27T11:16:35Z</time>
      </trkpt>
      <trkpt lat="45.84229" lon="4.79814">
        <ele>585.41</ele>
        <time>2021-04-27T11:16:35Z</time>
      </trkpt>
      <trkpt lat="45.84229" lon="4.79815">
        <ele>585.42</ele>
        <time>2021-04-27T11:16:36Z</time>
      </trkpt>
      <trkpt lat="45.84226" lon="4.79823">
        <ele>585.13</ele>
        <time>2021-04-27T11:17:03Z</time>
      </trkpt>
      <trkpt lat="45.84236" lon="4.79831">
        <ele>585.06</ele>
        <time>2021-04-27T11:17:11Z</time>
      </trkpt>
      <trkpt lat="45.84243" lon="4.79839">
        <ele>584.79</ele>
        <time>2021-04-27T11:17:15Z</time>
      </trkpt>
      <trkpt lat="45.84256" lon="4.79882">
        <ele>583.02</ele>
        <time>2021-04-27T11:17:28Z</time>
      </trkpt>
      <trkpt lat="45.84274" lon="4.7991">
        <ele>579.52</ele>
        <time>2021-04-27T11:17:39Z</time>
      </trkpt>
      <trkpt lat="45.84276" lon="4.79919">
        <ele>576.44</ele>
        <time>2021-04-27T11:17:54Z</time>
      </trkpt>
      <trkpt lat="45.84294" lon="4.79928">
        <ele>575.68</ele>
        <time>2021-04-27T11:18:18Z</time>
      </trkpt>
      <trkpt lat="45.84299" lon="4.79931">
        <ele>575.61</ele>
        <time>2021-04-27T11:18:20Z</time>
      </trkpt>
      <trkpt lat="45.84308" lon="4.79943">
        <ele>575.44</ele>
        <time>2021-04-27T11:18:24Z</time>
      </trkpt>
      <trkpt lat="45.84314" lon="4.79953">
        <ele>575.33</ele>
        <time>2021-04-27T11:18:26Z</time>
      </trkpt>
      <trkpt lat="45.84344" lon="4.80014">
        <ele>572.37</ele>
        <time>2021-04-27T11:18:37Z</time>
      </trkpt>
      <trkpt lat="45.84359" lon="4.80061">
        <ele>568.28</ele>
        <time>2021-04-27T11:18:44Z</time>
      </trkpt>
      <trkpt lat="45.84367" lon="4.80073">
        <ele>565.91</ele>
        <time>2021-04-27T11:18:47Z</time>
      </trkpt>
      <trkpt lat="45.84363" lon="4.80088">
        <ele>562.85</ele>
        <time>2021-04-27T11:18:52Z</time>
      </trkpt>
      <trkpt lat="45.84359" lon="4.80096">
        <ele>559.68</ele>
        <time>2021-04-27T11:18:54Z</time>
      </trkpt>
      <trkpt lat="45.84356" lon="4.80101">
        <ele>556.33</ele>
        <time>2021-04-27T11:18:58Z</time>
      </trkpt>
      <trkpt lat="45.84355" lon="4.80102">
        <ele>553.2</ele>
        <time>2021-04-27T11:19:04Z</time>
      </trkpt>
      <trkpt lat="45.84351" lon="4.80099">
        <ele>552.31</ele>
        <time>2021-04-27T11:19:49Z</time>
      </trkpt>
      <trkpt lat="45.84351" lon="4.80097">
        <ele>552.04</ele>
        <time>2021-04-27T11:20:29Z</time>
      </trkpt>
      <trkpt lat="45.8435" lon="4.80098">
        <ele>552.45</ele>
        <time>2021-04-27T11:21:15Z</time>
      </trkpt>
      <trkpt lat="45.84351" lon="4.80102">
        <ele>552.31</ele>
        <time>2021-04-27T11:21:40Z</time>
      </trkpt>
      <trkpt lat="45.84351" lon="4.80106">
        <ele>552.26</ele>
        <time>2021-04-27T11:21:42Z</time>
      </trkpt>
      <trkpt lat="45.8435" lon="4.80121">
        <ele>552.12</ele>
        <time>2021-04-27T11:21:46Z</time>
      </trkpt>
      <trkpt lat="45.84342" lon="4.80144">
        <ele>551.77</ele>
        <time>2021-04-27T11:21:51Z</time>
      </trkpt>
      <trkpt lat="45.84329" lon="4.80174">
        <ele>548.44</ele>
        <time>2021-04-27T11:21:59Z</time>
      </trkpt>
      <trkpt lat="45.84321" lon="4.80169">
        <ele>549.3</ele>
      </trkpt>
      <trkpt lat="45.84321" lon="4.80169">
        <ele>549.3</ele>
      </trkpt>
      <trkpt lat="45.84323" lon="4.80189">
        <ele>547.4</ele>
      </trkpt>
      <trkpt lat="45.84323" lon="4.80189">
        <ele>547.4</ele>
      </trkpt>
      <trkpt lat="45.8433" lon="4.80207">
        <ele>546</ele>
      </trkpt>
      <trkpt lat="45.8433" lon="4.80207">
        <ele>546</ele>
      </trkpt>
      <trkpt lat="45.84338" lon="4.80211">
        <ele>545.9</ele>
      </trkpt>
      <trkpt lat="45.84338" lon="4.80211">
        <ele>545.9</ele>
      </trkpt>
      <trkpt lat="45.8435" lon="4.80213">
        <ele>546</ele>
      </trkpt>
      <trkpt lat="45.8435" lon="4.80213">
        <ele>546</ele>
      </trkpt>
      <trkpt lat="45.84382" lon="4.80245">
        <ele>543.6</ele>
      </trkpt>
      <trkpt lat="45.84382" lon="4.80245">
        <ele>543.6</ele>
      </trkpt>
      <trkpt lat="45.84394" lon="4.80265">
        <ele>541.5</ele>
      </trkpt>
      <trkpt lat="45.84394" lon="4.80265">
        <ele>541.5</ele>
      </trkpt>
      <trkpt lat="45.84396" lon="4.80279">
        <ele>539.7</ele>
      </trkpt>
      <trkpt lat="45.84396" lon="4.80279">
        <ele>539.7</ele>
      </trkpt>
      <trkpt lat="45.84396" lon="4.8032">
        <ele>534.2</ele>
      </trkpt>
      <trkpt lat="45.84396" lon="4.8032">
        <ele>534.2</ele>
      </trkpt>
      <trkpt lat="45.84394" lon="4.80386">
        <ele>523.7</ele>
      </trkpt>
      <trkpt lat="45.84394" lon="4.80386">
        <ele>523.7</ele>
      </trkpt>
      <trkpt lat="45.84394" lon="4.80408">
        <ele>520.2</ele>
      </trkpt>
      <trkpt lat="45.84394" lon="4.80408">
        <ele>520.2</ele>
      </trkpt>
      <trkpt lat="45.84387" lon="4.80444">
        <ele>514.1</ele>
      </trkpt>
      <trkpt lat="45.84387" lon="4.80444">
        <ele>514.1</ele>
      </trkpt>
      <trkpt lat="45.84384" lon="4.80448">
        <ele>513.5</ele>
      </trkpt>
      <trkpt lat="45.84384" lon="4.80448">
        <ele>513.5</ele>
      </trkpt>
      <trkpt lat="45.84372" lon="4.80448">
        <ele>513.5</ele>
      </trkpt>
      <trkpt lat="45.84372" lon="4.80448">
        <ele>513.5</ele>
      </trkpt>
      <trkpt lat="45.84367" lon="4.80447">
        <ele>513.5</ele>
      </trkpt>
      <trkpt lat="45.84367" lon="4.80447">
        <ele>513.5</ele>
      </trkpt>
      <trkpt lat="45.84359" lon="4.80455">
        <ele>512.2</ele>
      </trkpt>
      <trkpt lat="45.84359" lon="4.80455">
        <ele>512.2</ele>
      </trkpt>
      <trkpt lat="45.84367" lon="4.80504">
        <ele>504.6</ele>
      </trkpt>
      <trkpt lat="45.84367" lon="4.80504">
        <ele>504.6</ele>
      </trkpt>
      <trkpt lat="45.84366" lon="4.80523">
        <ele>502.4</ele>
      </trkpt>
      <trkpt lat="45.84366" lon="4.80523">
        <ele>502.4</ele>
      </trkpt>
      <trkpt lat="45.84356" lon="4.80556">
        <ele>498.7</ele>
      </trkpt>
      <trkpt lat="45.84356" lon="4.80556">
        <ele>498.7</ele>
      </trkpt>
      <trkpt lat="45.84398" lon="4.80574">
        <ele>497.5</ele>
      </trkpt>
      <trkpt lat="45.84398" lon="4.80574">
        <ele>497.5</ele>
      </trkpt>
      <trkpt lat="45.84417" lon="4.80583">
        <ele>497.1</ele>
      </trkpt>
      <trkpt lat="45.84417" lon="4.80583">
        <ele>497.1</ele>
      </trkpt>
      <trkpt lat="45.84426" lon="4.80589">
        <ele>495.8</ele>
      </trkpt>
      <trkpt lat="45.84426" lon="4.80589">
        <ele>495.8</ele>
      </trkpt>
      <trkpt lat="45.84416" lon="4.80611">
        <ele>493.4</ele>
      </trkpt>
      <trkpt lat="45.84416" lon="4.80611">
        <ele>493.4</ele>
      </trkpt>
      <trkpt lat="45.8441" lon="4.80637">
        <ele>489.8</ele>
      </trkpt>
      <trkpt lat="45.8441" lon="4.80637">
        <ele>489.8</ele>
      </trkpt>
      <trkpt lat="45.84409" lon="4.80663">
        <ele>486.4</ele>
      </trkpt>
      <trkpt lat="45.84409" lon="4.80663">
        <ele>486.4</ele>
      </trkpt>
      <trkpt lat="45.84409" lon="4.80684">
        <ele>483.7</ele>
      </trkpt>
      <trkpt lat="45.84409" lon="4.80684">
        <ele>483.7</ele>
      </trkpt>
      <trkpt lat="45.8441" lon="4.80694">
        <ele>482.3</ele>
      </trkpt>
      <trkpt lat="45.8441" lon="4.80694">
        <ele>482.3</ele>
      </trkpt>
      <trkpt lat="45.84409" lon="4.8071">
        <ele>480.2</ele>
      </trkpt>
      <trkpt lat="45.84409" lon="4.8071">
        <ele>480.2</ele>
      </trkpt>
      <trkpt lat="45.84412" lon="4.80744">
        <ele>475.8</ele>
      </trkpt>
      <trkpt lat="45.84412" lon="4.80744">
        <ele>475.8</ele>
      </trkpt>
      <trkpt lat="45.84416" lon="4.80774">
        <ele>471.8</ele>
      </trkpt>
      <trkpt lat="45.84416" lon="4.80774">
        <ele>471.8</ele>
      </trkpt>
      <trkpt lat="45.8442" lon="4.80802">
        <ele>468</ele>
      </trkpt>
      <trkpt lat="45.8442" lon="4.80802">
        <ele>468</ele>
      </trkpt>
      <trkpt lat="45.84418" lon="4.80833">
        <ele>464.1</ele>
      </trkpt>
      <trkpt lat="45.84418" lon="4.80833">
        <ele>464.1</ele>
      </trkpt>
      <trkpt lat="45.8441" lon="4.80871">
        <ele>461.5</ele>
      </trkpt>
      <trkpt lat="45.8441" lon="4.80871">
        <ele>461.5</ele>
      </trkpt>
      <trkpt lat="45.84397" lon="4.80914">
        <ele>458.7</ele>
      </trkpt>
      <trkpt lat="45.84397" lon="4.80914">
        <ele>458.7</ele>
      </trkpt>
      <trkpt lat="45.84382" lon="4.80964">
        <ele>453.4</ele>
      </trkpt>
      <trkpt lat="45.84382" lon="4.80964">
        <ele>453.4</ele>
      </trkpt>
      <trkpt lat="45.84373" lon="4.81004">
        <ele>449</ele>
      </trkpt>
      <trkpt lat="45.84373" lon="4.81004">
        <ele>449</ele>
      </trkpt>
      <trkpt lat="45.84362" lon="4.81052">
        <ele>443.4</ele>
      </trkpt>
      <trkpt lat="45.84362" lon="4.81052">
        <ele>443.4</ele>
      </trkpt>
      <trkpt lat="45.84358" lon="4.81098">
        <ele>438.1</ele>
      </trkpt>
      <trkpt lat="45.84358" lon="4.81098">
        <ele>438.1</ele>
      </trkpt>
      <trkpt lat="45.84344" lon="4.81164">
        <ele>433</ele>
      </trkpt>
      <trkpt lat="45.84344" lon="4.81164">
        <ele>433</ele>
      </trkpt>
      <trkpt lat="45.84338" lon="4.81203">
        <ele>429.9</ele>
      </trkpt>
      <trkpt lat="45.84338" lon="4.81203">
        <ele>429.9</ele>
      </trkpt>
      <trkpt lat="45.84333" lon="4.81231">
        <ele>427.8</ele>
      </trkpt>
      <trkpt lat="45.84333" lon="4.81231">
        <ele>427.8</ele>
      </trkpt>
      <trkpt lat="45.84322" lon="4.81264">
        <ele>424.2</ele>
      </trkpt>
      <trkpt lat="45.84322" lon="4.81264">
        <ele>424.2</ele>
      </trkpt>
      <trkpt lat="45.84316" lon="4.81266">
        <ele>423.9</ele>
      </trkpt>
      <trkpt lat="45.84316" lon="4.81266">
        <ele>423.9</ele>
      </trkpt>
      <trkpt lat="45.84313" lon="4.81281">
        <ele>422.2</ele>
      </trkpt>
      <trkpt lat="45.84313" lon="4.81281">
        <ele>422.2</ele>
      </trkpt>
      <trkpt lat="45.84319" lon="4.81302">
        <ele>420.2</ele>
      </trkpt>
      <trkpt lat="45.84319" lon="4.81302">
        <ele>420.2</ele>
      </trkpt>
      <trkpt lat="45.84317" lon="4.81319">
        <ele>418.3</ele>
      </trkpt>
      <trkpt lat="45.84317" lon="4.81319">
        <ele>418.3</ele>
      </trkpt>
      <trkpt lat="45.84302" lon="4.81372">
        <ele>410.9</ele>
      </trkpt>
      <trkpt lat="45.84302" lon="4.81372">
        <ele>410.9</ele>
      </trkpt>
      <trkpt lat="45.84289" lon="4.81421">
        <ele>405.1</ele>
      </trkpt>
      <trkpt lat="45.84289" lon="4.81421">
        <ele>405.1</ele>
      </trkpt>
      <trkpt lat="45.84274" lon="4.81454">
        <ele>402.9</ele>
      </trkpt>
      <trkpt lat="45.84274" lon="4.81454">
        <ele>402.9</ele>
      </trkpt>
      <trkpt lat="45.84255" lon="4.81495">
        <ele>402.2</ele>
      </trkpt>
      <trkpt lat="45.84255" lon="4.81495">
        <ele>402.2</ele>
      </trkpt>
      <trkpt lat="45.8424" lon="4.81528">
        <ele>397.6</ele>
      </trkpt>
      <trkpt lat="45.8424" lon="4.81528">
        <ele>397.6</ele>
      </trkpt>
      <trkpt lat="45.84221" lon="4.81546">
        <ele>392.4</ele>
      </trkpt>
      <trkpt lat="45.84221" lon="4.81546">
        <ele>392.4</ele>
      </trkpt>
      <trkpt lat="45.84219" lon="4.81547">
        <ele>391.8</ele>
      </trkpt>
      <trkpt lat="45.84219" lon="4.81547">
        <ele>391.8</ele>
      </trkpt>
      <trkpt lat="45.84221" lon="4.816">
        <ele>385.1</ele>
      </trkpt>
      <trkpt lat="45.84221" lon="4.816">
        <ele>385.1</ele>
      </trkpt>
      <trkpt lat="45.84221" lon="4.81655">
        <ele>377.3</ele>
      </trkpt>
      <trkpt lat="45.84221" lon="4.81655">
        <ele>377.3</ele>
      </trkpt>
      <trkpt lat="45.84217" lon="4.81689">
        <ele>369.5</ele>
      </trkpt>
      <trkpt lat="45.84217" lon="4.81689">
        <ele>369.5</ele>
      </trkpt>
      <trkpt lat="45.84211" lon="4.81728">
        <ele>359.4</ele>
      </trkpt>
      <trkpt lat="45.84211" lon="4.81728">
        <ele>359.4</ele>
      </trkpt>
      <trkpt lat="45.84198" lon="4.81763">
        <ele>352.3</ele>
      </trkpt>
      <trkpt lat="45.84198" lon="4.81763">
        <ele>352.3</ele>
      </trkpt>
      <trkpt lat="45.84181" lon="4.81786">
        <ele>349.3</ele>
      </trkpt>
      <trkpt lat="45.84181" lon="4.81786">
        <ele>349.3</ele>
      </trkpt>
      <trkpt lat="45.84169" lon="4.81805">
        <ele>346.7</ele>
      </trkpt>
      <trkpt lat="45.84169" lon="4.81805">
        <ele>346.7</ele>
      </trkpt>
      <trkpt lat="45.84158" lon="4.81836">
        <ele>337.7</ele>
      </trkpt>
      <trkpt lat="45.84158" lon="4.81836">
        <ele>337.7</ele>
      </trkpt>
      <trkpt lat="45.84142" lon="4.81875">
        <ele>328.7</ele>
      </trkpt>
      <trkpt lat="45.84142" lon="4.81875">
        <ele>328.7</ele>
      </trkpt>
      <trkpt lat="45.84132" lon="4.8189">
        <ele>324.5</ele>
      </trkpt>
      <trkpt lat="45.84132" lon="4.8189">
        <ele>324.5</ele>
      </trkpt>
      <trkpt lat="45.84115" lon="4.81921">
        <ele>317.1</ele>
      </trkpt>
      <trkpt lat="45.84115" lon="4.81921">
        <ele>317.1</ele>
      </trkpt>
      <trkpt lat="45.84107" lon="4.81938">
        <ele>312.6</ele>
      </trkpt>
      <trkpt lat="45.84107" lon="4.81938">
        <ele>312.6</ele>
      </trkpt>
      <trkpt lat="45.84103" lon="4.81987">
        <ele>305.1</ele>
      </trkpt>
      <trkpt lat="45.84103" lon="4.81987">
        <ele>305.1</ele>
      </trkpt>
      <trkpt lat="45.84104" lon="4.82033">
        <ele>299.3</ele>
      </trkpt>
      <trkpt lat="45.84104" lon="4.82033">
        <ele>299.3</ele>
      </trkpt>
      <trkpt lat="45.84098" lon="4.8208">
        <ele>292.8</ele>
      </trkpt>
      <trkpt lat="45.84098" lon="4.8208">
        <ele>292.8</ele>
      </trkpt>
      <trkpt lat="45.84093" lon="4.82096">
        <ele>290.5</ele>
      </trkpt>
      <trkpt lat="45.84093" lon="4.82096">
        <ele>290.5</ele>
      </trkpt>
      <trkpt lat="45.84085" lon="4.82148">
        <ele>284.1</ele>
      </trkpt>
      <trkpt lat="45.84085" lon="4.82148">
        <ele>284.1</ele>
      </trkpt>
      <trkpt lat="45.84072" lon="4.82205">
        <ele>274.4</ele>
      </trkpt>
      <trkpt lat="45.84072" lon="4.82205">
        <ele>274.4</ele>
      </trkpt>
      <trkpt lat="45.84057" lon="4.82258">
        <ele>264.4</ele>
      </trkpt>
      <trkpt lat="45.84057" lon="4.82258">
        <ele>264.4</ele>
      </trkpt>
      <trkpt lat="45.84038" lon="4.82307">
        <ele>253</ele>
      </trkpt>
      <trkpt lat="45.84038" lon="4.82307">
        <ele>253</ele>
      </trkpt>
      <trkpt lat="45.84026" lon="4.82344">
        <ele>246.9</ele>
      </trkpt>
      <trkpt lat="45.84026" lon="4.82344">
        <ele>246.9</ele>
      </trkpt>
      <trkpt lat="45.84016" lon="4.82391">
        <ele>241.1</ele>
      </trkpt>
      <trkpt lat="45.84016" lon="4.82391">
        <ele>241.1</ele>
      </trkpt>
      <trkpt lat="45.83999" lon="4.82439">
        <ele>235.3</ele>
      </trkpt>
      <trkpt lat="45.83999" lon="4.82439">
        <ele>235.3</ele>
      </trkpt>
      <trkpt lat="45.83988" lon="4.8249">
        <ele>227.9</ele>
      </trkpt>
      <trkpt lat="45.83988" lon="4.8249">
        <ele>227.9</ele>
      </trkpt>
      <trkpt lat="45.83977" lon="4.82535">
        <ele>220.1</ele>
      </trkpt>
      <trkpt lat="45.83977" lon="4.82535">
        <ele>220.1</ele>
      </trkpt>
      <trkpt lat="45.83966" lon="4.82578">
        <ele>213</ele>
      </trkpt>
      <trkpt lat="45.83966" lon="4.82578">
        <ele>213</ele>
      </trkpt>
      <trkpt lat="45.83966" lon="4.82596">
        <ele>210.2</ele>
      </trkpt>
      <trkpt lat="45.83966" lon="4.82596">
        <ele>210.2</ele>
      </trkpt>
      <trkpt lat="45.83974" lon="4.8266">
        <ele>200.9</ele>
      </trkpt>
      <trkpt lat="45.83974" lon="4.8266">
        <ele>200.9</ele>
      </trkpt>
      <trkpt lat="45.83979" lon="4.82689">
        <ele>197.3</ele>
      </trkpt>
      <trkpt lat="45.83979" lon="4.82689">
        <ele>197.3</ele>
      </trkpt>
      <trkpt lat="45.84003" lon="4.82737">
        <ele>191.1</ele>
      </trkpt>
      <trkpt lat="45.84003" lon="4.82737">
        <ele>191.1</ele>
      </trkpt>
    </trkseg>
  </trk>
</gpx>